sensor_id;sensor_type;location;lat;lon;timestamp;pressure;altitude;pressure_sealevel;temperature;humidity
75039;BME280;63609;49.992;14.512;2023-05-07T00:03:31;98283.94;;;9.64;59.37
75039;BME280;63609;49.992;14.512;2023-05-07T00:05:59;98277.78;;;9.73;59.82
75039;BME280;63609;49.992;14.512;2023-05-07T00:08:26;98281.03;;;9.96;58.76
75039;BME280;63609;49.992;14.512;2023-05-07T00:10:53;98277.06;;;10.10;57.73
75039;BME280;63609;49.992;14.512;2023-05-07T00:13:20;98272.00;;;10.17;57.54
75039;BME280;63609;49.992;14.512;2023-05-07T00:15:47;98274.28;;;10.02;58.73
75039;BME280;63609;49.992;14.512;2023-05-07T00:18:15;98280.72;;;9.99;58.57
75039;BME280;63609;49.992;14.512;2023-05-07T00:20:42;98280.03;;;9.97;58.27
75039;BME280;63609;49.992;14.512;2023-05-07T00:23:09;98273.13;;;10.04;58.37
75039;BME280;63609;49.992;14.512;2023-05-07T00:25:36;98275.25;;;9.91;58.60
75039;BME280;63609;49.992;14.512;2023-05-07T00:28:04;98277.50;;;9.96;58.78
75039;BME280;63609;49.992;14.512;2023-05-07T00:30:31;98286.19;;;10.17;57.80
75039;BME280;63609;49.992;14.512;2023-05-07T00:32:58;98273.84;;;10.16;58.15
75039;BME280;63609;49.992;14.512;2023-05-07T00:35:25;98270.59;;;10.22;57.53
75039;BME280;63609;49.992;14.512;2023-05-07T00:37:52;98270.97;;;10.37;57.44
75039;BME280;63609;49.992;14.512;2023-05-07T00:40:19;98283.47;;;10.36;58.14
75039;BME280;63609;49.992;14.512;2023-05-07T00:42:46;98277.75;;;10.22;58.50
75039;BME280;63609;49.992;14.512;2023-05-07T00:45:15;98279.75;;;9.62;60.70
75039;BME280;63609;49.992;14.512;2023-05-07T00:47:42;98275.81;;;9.75;60.37
75039;BME280;63609;49.992;14.512;2023-05-07T00:50:10;98282.09;;;10.13;59.82
75039;BME280;63609;49.992;14.512;2023-05-07T00:52:38;98269.34;;;10.17;58.67
75039;BME280;63609;49.992;14.512;2023-05-07T00:55:06;98274.00;;;9.95;59.64
75039;BME280;63609;49.992;14.512;2023-05-07T00:57:37;98284.78;;;10.03;59.30
75039;BME280;63609;49.992;14.512;2023-05-07T01:00:07;98275.41;;;9.99;59.09
75039;BME280;63609;49.992;14.512;2023-05-07T01:02:36;98284.81;;;9.94;60.31
75039;BME280;63609;49.992;14.512;2023-05-07T01:05:05;98291.69;;;9.96;59.49
75039;BME280;63609;49.992;14.512;2023-05-07T01:07:33;98289.25;;;10.12;59.52
75039;BME280;63609;49.992;14.512;2023-05-07T01:10:02;98290.72;;;9.97;59.44
75039;BME280;63609;49.992;14.512;2023-05-07T01:12:30;98288.28;;;10.23;58.63
75039;BME280;63609;49.992;14.512;2023-05-07T01:14:58;98289.66;;;10.37;58.27
75039;BME280;63609;49.992;14.512;2023-05-07T01:17:25;98291.03;;;10.41;57.32
75039;BME280;63609;49.992;14.512;2023-05-07T01:19:53;98293.84;;;10.39;57.82
75039;BME280;63609;49.992;14.512;2023-05-07T01:22:34;98285.00;;;10.49;57.50
75039;BME280;63609;49.992;14.512;2023-05-07T01:25:07;98293.88;;;10.30;59.35
75039;BME280;63609;49.992;14.512;2023-05-07T01:27:39;98292.41;;;10.45;57.96
75039;BME280;63609;49.992;14.512;2023-05-07T01:30:07;98304.09;;;10.54;57.46
75039;BME280;63609;49.992;14.512;2023-05-07T01:35:05;98292.13;;;10.58;56.82
75039;BME280;63609;49.992;14.512;2023-05-07T01:37:34;98292.91;;;10.68;56.35
75039;BME280;63609;49.992;14.512;2023-05-07T01:40:02;98302.63;;;10.69;56.55
75039;BME280;63609;49.992;14.512;2023-05-07T01:42:29;98302.63;;;10.69;56.05
75039;BME280;63609;49.992;14.512;2023-05-07T01:44:56;98298.94;;;10.80;55.72
75039;BME280;63609;49.992;14.512;2023-05-07T01:47:24;98285.31;;;10.73;55.54
75039;BME280;63609;49.992;14.512;2023-05-07T01:49:52;98285.41;;;10.54;56.28
75039;BME280;63609;49.992;14.512;2023-05-07T01:52:20;98298.09;;;10.79;55.62
75039;BME280;63609;49.992;14.512;2023-05-07T01:54:47;98292.38;;;10.64;55.55
75039;BME280;63609;49.992;14.512;2023-05-07T01:57:14;98290.25;;;10.68;55.71
75039;BME280;63609;49.992;14.512;2023-05-07T01:59:42;98291.25;;;10.67;55.60
75039;BME280;63609;49.992;14.512;2023-05-07T02:02:08;98286.28;;;10.72;55.81
75039;BME280;63609;49.992;14.512;2023-05-07T02:04:38;98295.19;;;10.63;56.14
75039;BME280;63609;49.992;14.512;2023-05-07T02:07:05;98290.66;;;10.73;55.91
75039;BME280;63609;49.992;14.512;2023-05-07T02:09:33;98289.81;;;10.72;56.11
75039;BME280;63609;49.992;14.512;2023-05-07T02:12:00;98296.69;;;10.75;56.10
75039;BME280;63609;49.992;14.512;2023-05-07T02:14:28;98289.75;;;10.55;55.87
75039;BME280;63609;49.992;14.512;2023-05-07T02:16:55;98290.66;;;10.73;55.27
75039;BME280;63609;49.992;14.512;2023-05-07T02:19:23;98286.69;;;10.50;56.55
75039;BME280;63609;49.992;14.512;2023-05-07T02:21:50;98288.59;;;9.81;57.73
75039;BME280;63609;49.992;14.512;2023-05-07T02:24:17;98291.09;;;10.12;57.17
75039;BME280;63609;49.992;14.512;2023-05-07T02:26:45;98293.19;;;10.28;56.70
75039;BME280;63609;49.992;14.512;2023-05-07T02:29:11;98296.16;;;10.25;57.03
75039;BME280;63609;49.992;14.512;2023-05-07T02:31:39;98296.84;;;10.07;57.39
75039;BME280;63609;49.992;14.512;2023-05-07T02:34:06;98294.59;;;10.12;57.24
75039;BME280;63609;49.992;14.512;2023-05-07T02:36:33;98300.06;;;10.30;56.89
75039;BME280;63609;49.992;14.512;2023-05-07T02:39:08;98295.63;;;10.58;56.25
75039;BME280;63609;49.992;14.512;2023-05-07T02:41:35;98294.50;;;10.61;56.43
75039;BME280;63609;49.992;14.512;2023-05-07T02:44:03;98287.22;;;10.53;56.52
75039;BME280;63609;49.992;14.512;2023-05-07T02:46:31;98289.84;;;10.63;55.67
75039;BME280;63609;49.992;14.512;2023-05-07T02:49:02;98291.72;;;10.53;56.05
75039;BME280;63609;49.992;14.512;2023-05-07T02:51:30;98291.59;;;10.44;56.46
75039;BME280;63609;49.992;14.512;2023-05-07T02:54:00;98295.66;;;10.49;56.81
75039;BME280;63609;49.992;14.512;2023-05-07T02:56:28;98292.47;;;10.72;55.98
75039;BME280;63609;49.992;14.512;2023-05-07T02:58:55;98297.72;;;10.64;56.03
75039;BME280;63609;49.992;14.512;2023-05-07T03:01:27;98304.94;;;10.44;56.85
75039;BME280;63609;49.992;14.512;2023-05-07T03:04:16;98304.03;;;9.97;57.29
75039;BME280;63609;49.992;14.512;2023-05-07T03:06:45;98300.22;;;10.09;56.50
75039;BME280;63609;49.992;14.512;2023-05-07T03:09:12;98290.84;;;9.86;56.61
75039;BME280;63609;49.992;14.512;2023-05-07T03:11:39;98292.78;;;9.65;56.52
75039;BME280;63609;49.992;14.512;2023-05-07T03:14:07;98293.06;;;9.71;56.45
75039;BME280;63609;49.992;14.512;2023-05-07T03:16:35;98298.84;;;9.96;55.48
75039;BME280;63609;49.992;14.512;2023-05-07T03:19:04;98310.03;;;10.28;54.73
75039;BME280;63609;49.992;14.512;2023-05-07T03:21:31;98308.75;;;10.32;54.71
75039;BME280;63609;49.992;14.512;2023-05-07T03:24:01;98300.88;;;10.40;54.05
75039;BME280;63609;49.992;14.512;2023-05-07T03:26:29;98289.81;;;10.26;53.87
75039;BME280;63609;49.992;14.512;2023-05-07T03:28:56;98307.38;;;10.09;55.21
75039;BME280;63609;49.992;14.512;2023-05-07T03:31:25;98299.38;;;9.90;55.30
75039;BME280;63609;49.992;14.512;2023-05-07T03:33:54;98297.72;;;10.18;54.99
75039;BME280;63609;49.992;14.512;2023-05-07T03:36:23;98298.53;;;10.28;54.59
75039;BME280;63609;49.992;14.512;2023-05-07T03:38:51;98302.03;;;10.28;54.31
75039;BME280;63609;49.992;14.512;2023-05-07T03:41:22;98305.66;;;10.47;54.30
75039;BME280;63609;49.992;14.512;2023-05-07T03:43:50;98304.16;;;10.25;54.82
75039;BME280;63609;49.992;14.512;2023-05-07T03:46:18;98301.34;;;10.26;54.52
75039;BME280;63609;49.992;14.512;2023-05-07T03:48:47;98307.50;;;10.27;54.49
75039;BME280;63609;49.992;14.512;2023-05-07T03:51:16;98306.53;;;10.28;54.60
75039;BME280;63609;49.992;14.512;2023-05-07T03:53:45;98310.41;;;10.43;54.37
75039;BME280;63609;49.992;14.512;2023-05-07T03:56:12;98308.91;;;10.31;54.76
75039;BME280;63609;49.992;14.512;2023-05-07T03:58:40;98308.09;;;10.01;56.67
75039;BME280;63609;49.992;14.512;2023-05-07T04:01:10;98312.44;;;10.02;56.14
75039;BME280;63609;49.992;14.512;2023-05-07T04:03:37;98300.66;;;9.86;56.97
75039;BME280;63609;49.992;14.512;2023-05-07T04:06:05;98312.59;;;10.01;57.10
75039;BME280;63609;49.992;14.512;2023-05-07T04:08:34;98296.88;;;10.17;56.35
75039;BME280;63609;49.992;14.512;2023-05-07T04:11:03;98311.44;;;10.32;56.66
75039;BME280;63609;49.992;14.512;2023-05-07T04:13:33;98301.50;;;10.05;57.74
75039;BME280;63609;49.992;14.512;2023-05-07T04:16:03;98296.16;;;10.15;57.43
75039;BME280;63609;49.992;14.512;2023-05-07T04:18:33;98301.91;;;10.10;57.68
75039;BME280;63609;49.992;14.512;2023-05-07T04:21:01;98311.00;;;9.79;58.96
75039;BME280;63609;49.992;14.512;2023-05-07T04:23:31;98315.69;;;9.96;58.48
75039;BME280;63609;49.992;14.512;2023-05-07T04:26:02;98323.00;;;9.94;57.91
75039;BME280;63609;49.992;14.512;2023-05-07T04:28:38;98322.94;;;9.75;58.11
75039;BME280;63609;49.992;14.512;2023-05-07T04:31:08;98323.38;;;9.70;58.80
75039;BME280;63609;49.992;14.512;2023-05-07T04:33:36;98332.66;;;9.86;57.75
75039;BME280;63609;49.992;14.512;2023-05-07T04:36:08;98336.69;;;9.80;57.52
75039;BME280;63609;49.992;14.512;2023-05-07T04:38:42;98333.94;;;9.81;57.41
75039;BME280;63609;49.992;14.512;2023-05-07T04:41:12;98332.91;;;9.73;57.65
75039;BME280;63609;49.992;14.512;2023-05-07T04:43:41;98341.63;;;9.75;57.64
75039;BME280;63609;49.992;14.512;2023-05-07T04:46:11;98347.97;;;9.83;57.61
75039;BME280;63609;49.992;14.512;2023-05-07T04:48:40;98344.97;;;9.77;57.10
75039;BME280;63609;49.992;14.512;2023-05-07T04:51:08;98343.16;;;9.77;57.16
75039;BME280;63609;49.992;14.512;2023-05-07T04:53:35;98339.13;;;9.83;56.68
75039;BME280;63609;49.992;14.512;2023-05-07T04:56:03;98341.38;;;10.17;55.73
75039;BME280;63609;49.992;14.512;2023-05-07T04:58:37;98338.69;;;10.07;55.63
75039;BME280;63609;49.992;14.512;2023-05-07T05:01:06;98341.34;;;9.88;56.11
75039;BME280;63609;49.992;14.512;2023-05-07T05:03:34;98343.75;;;10.10;55.58
75039;BME280;63609;49.992;14.512;2023-05-07T05:06:01;98345.19;;;10.14;55.35
75039;BME280;63609;49.992;14.512;2023-05-07T05:08:33;98354.84;;;10.25;55.48
75039;BME280;63609;49.992;14.512;2023-05-07T05:11:02;98352.31;;;10.23;55.58
75039;BME280;63609;49.992;14.512;2023-05-07T05:13:32;98352.19;;;10.25;54.62
75039;BME280;63609;49.992;14.512;2023-05-07T05:16:03;98358.59;;;10.51;54.21
75039;BME280;63609;49.992;14.512;2023-05-07T05:18:32;98366.19;;;10.56;53.96
75039;BME280;63609;49.992;14.512;2023-05-07T05:21:00;98371.88;;;10.80;53.43
75039;BME280;63609;49.992;14.512;2023-05-07T05:23:28;98359.72;;;10.58;53.81
75039;BME280;63609;49.992;14.512;2023-05-07T05:26:03;98365.22;;;10.47;54.02
75039;BME280;63609;49.992;14.512;2023-05-07T05:28:33;98373.81;;;10.78;53.46
75039;BME280;63609;49.992;14.512;2023-05-07T05:31:02;98366.34;;;10.91;52.74
75039;BME280;63609;49.992;14.512;2023-05-07T05:33:35;98365.06;;;10.95;52.76
75039;BME280;63609;49.992;14.512;2023-05-07T05:36:04;98371.16;;;10.88;53.01
75039;BME280;63609;49.992;14.512;2023-05-07T05:38:33;98381.59;;;10.81;53.20
75039;BME280;63609;49.992;14.512;2023-05-07T05:41:03;98375.66;;;10.77;53.31
75039;BME280;63609;49.992;14.512;2023-05-07T05:43:31;98376.44;;;10.97;53.38
75039;BME280;63609;49.992;14.512;2023-05-07T05:46:25;98383.72;;;11.05;52.75
75039;BME280;63609;49.992;14.512;2023-05-07T05:49:31;98378.13;;;11.08;52.34
75039;BME280;63609;49.992;14.512;2023-05-07T05:52:03;98374.78;;;10.96;52.41
75039;BME280;63609;49.992;14.512;2023-05-07T05:54:31;98375.31;;;10.53;53.76
75039;BME280;63609;49.992;14.512;2023-05-07T05:57:00;98381.03;;;10.68;53.53
75039;BME280;63609;49.992;14.512;2023-05-07T05:59:31;98379.22;;;10.59;53.12
75039;BME280;63609;49.992;14.512;2023-05-07T06:01:59;98373.91;;;10.59;53.61
75039;BME280;63609;49.992;14.512;2023-05-07T06:04:29;98376.19;;;10.91;52.50
75039;BME280;63609;49.992;14.512;2023-05-07T06:06:57;98376.13;;;11.20;51.80
75039;BME280;63609;49.992;14.512;2023-05-07T06:09:25;98384.59;;;11.15;51.69
75039;BME280;63609;49.992;14.512;2023-05-07T06:11:52;98385.38;;;10.79;52.61
75039;BME280;63609;49.992;14.512;2023-05-07T06:14:20;98382.31;;;11.20;51.33
75039;BME280;63609;49.992;14.512;2023-05-07T06:16:49;98385.56;;;10.58;52.54
75039;BME280;63609;49.992;14.512;2023-05-07T06:19:17;98390.50;;;10.53;52.97
75039;BME280;63609;49.992;14.512;2023-05-07T06:21:54;98399.44;;;10.81;51.97
75039;BME280;63609;49.992;14.512;2023-05-07T06:24:25;98394.56;;;11.03;51.58
75039;BME280;63609;49.992;14.512;2023-05-07T06:26:52;98403.00;;;11.09;51.94
75039;BME280;63609;49.992;14.512;2023-05-07T06:29:20;98401.19;;;10.99;51.63
75039;BME280;63609;49.992;14.512;2023-05-07T06:31:47;98414.13;;;11.41;50.64
75039;BME280;63609;49.992;14.512;2023-05-07T06:34:17;98408.00;;;11.31;50.53
75039;BME280;63609;49.992;14.512;2023-05-07T06:36:46;98421.94;;;11.25;50.97
75039;BME280;63609;49.992;14.512;2023-05-07T06:39:29;98405.66;;;10.42;53.14
75039;BME280;63609;49.992;14.512;2023-05-07T06:41:57;98422.28;;;9.58;54.17
75039;BME280;63609;49.992;14.512;2023-05-07T06:44:30;98412.69;;;10.05;53.84
75039;BME280;63609;49.992;14.512;2023-05-07T06:47:07;98430.66;;;10.80;52.18
75039;BME280;63609;49.992;14.512;2023-05-07T06:49:54;98420.94;;;10.69;51.21
75039;BME280;63609;49.992;14.512;2023-05-07T06:52:26;98428.13;;;10.79;51.56
75039;BME280;63609;49.992;14.512;2023-05-07T06:54:54;98427.53;;;10.85;50.96
75039;BME280;63609;49.992;14.512;2023-05-07T06:57:26;98429.34;;;10.74;51.14
75039;BME280;63609;49.992;14.512;2023-05-07T06:59:53;98425.66;;;11.14;50.61
75039;BME280;63609;49.992;14.512;2023-05-07T07:02:21;98434.88;;;11.29;50.73
75039;BME280;63609;49.992;14.512;2023-05-07T07:04:49;98428.81;;;11.27;49.78
75039;BME280;63609;49.992;14.512;2023-05-07T07:07:18;98441.72;;;11.69;49.38
75039;BME280;63609;49.992;14.512;2023-05-07T07:09:47;98443.22;;;11.54;50.06
75039;BME280;63609;49.992;14.512;2023-05-07T07:12:17;98432.59;;;10.78;51.70
75039;BME280;63609;49.992;14.512;2023-05-07T07:14:48;98438.00;;;11.52;49.69
75039;BME280;63609;49.992;14.512;2023-05-07T07:17:19;98439.84;;;11.79;49.09
75039;BME280;63609;49.992;14.512;2023-05-07T07:19:49;98442.22;;;11.82;49.55
75039;BME280;63609;49.992;14.512;2023-05-07T07:22:18;98445.59;;;11.84;48.75
75039;BME280;63609;49.992;14.512;2023-05-07T07:24:49;98438.88;;;11.43;50.07
75039;BME280;63609;49.992;14.512;2023-05-07T07:27:21;98440.72;;;11.70;49.25
75039;BME280;63609;49.992;14.512;2023-05-07T07:29:50;98441.22;;;12.01;49.30
75039;BME280;63609;49.992;14.512;2023-05-07T07:32:17;98446.16;;;11.23;49.90
75039;BME280;63609;49.992;14.512;2023-05-07T07:34:53;98450.34;;;11.63;49.27
75039;BME280;63609;49.992;14.512;2023-05-07T07:37:21;98444.22;;;11.43;48.67
75039;BME280;63609;49.992;14.512;2023-05-07T07:39:51;98444.59;;;11.58;49.03
75039;BME280;63609;49.992;14.512;2023-05-07T07:42:21;98453.00;;;11.63;49.07
75039;BME280;63609;49.992;14.512;2023-05-07T07:44:48;98460.66;;;12.03;48.36
75039;BME280;63609;49.992;14.512;2023-05-07T07:47:18;98456.41;;;12.10;47.94
75039;BME280;63609;49.992;14.512;2023-05-07T07:49:47;98460.25;;;11.80;48.53
75039;BME280;63609;49.992;14.512;2023-05-07T07:52:14;98461.34;;;11.60;48.99
75039;BME280;63609;49.992;14.512;2023-05-07T07:54:44;98462.28;;;10.65;50.53
75039;BME280;63609;49.992;14.512;2023-05-07T07:57:12;98456.81;;;10.57;52.00
75039;BME280;63609;49.992;14.512;2023-05-07T07:59:42;98466.22;;;11.64;49.41
75039;BME280;63609;49.992;14.512;2023-05-07T08:02:12;98465.91;;;11.40;49.62
75039;BME280;63609;49.992;14.512;2023-05-07T08:04:41;98469.66;;;11.57;49.07
75039;BME280;63609;49.992;14.512;2023-05-07T08:07:38;98472.63;;;11.81;48.52
75039;BME280;63609;49.992;14.512;2023-05-07T08:10:08;98478.91;;;11.62;48.64
75039;BME280;63609;49.992;14.512;2023-05-07T08:12:38;98481.28;;;11.65;49.04
75039;BME280;63609;49.992;14.512;2023-05-07T08:15:23;98470.06;;;11.25;49.63
75039;BME280;63609;49.992;14.512;2023-05-07T08:17:50;98474.16;;;11.19;50.11
75039;BME280;63609;49.992;14.512;2023-05-07T08:20:18;98459.63;;;11.31;49.92
75039;BME280;63609;49.992;14.512;2023-05-07T08:22:47;98473.69;;;11.33;50.09
75039;BME280;63609;49.992;14.512;2023-05-07T08:25:15;98474.50;;;11.71;49.07
75039;BME280;63609;49.992;14.512;2023-05-07T08:27:43;98482.97;;;11.66;49.31
75039;BME280;63609;49.992;14.512;2023-05-07T08:30:12;98484.88;;;11.84;48.85
75039;BME280;63609;49.992;14.512;2023-05-07T08:32:40;98492.78;;;11.48;50.10
75039;BME280;63609;49.992;14.512;2023-05-07T08:35:08;98495.44;;;11.76;48.80
75039;BME280;63609;49.992;14.512;2023-05-07T08:37:37;98499.59;;;11.23;49.73
75039;BME280;63609;49.992;14.512;2023-05-07T08:40:05;98497.22;;;11.20;49.35
75039;BME280;63609;49.992;14.512;2023-05-07T08:42:39;98502.09;;;11.44;49.41
75039;BME280;63609;49.992;14.512;2023-05-07T08:45:09;98502.47;;;11.49;49.33
75039;BME280;63609;49.992;14.512;2023-05-07T08:47:46;98500.69;;;11.77;48.43
75039;BME280;63609;49.992;14.512;2023-05-07T08:50:16;98501.75;;;11.57;49.40
75039;BME280;63609;49.992;14.512;2023-05-07T08:52:44;98505.56;;;11.82;48.46
75039;BME280;63609;49.992;14.512;2023-05-07T08:55:13;98508.22;;;11.54;48.51
75039;BME280;63609;49.992;14.512;2023-05-07T08:57:40;98502.09;;;11.34;49.13
75039;BME280;63609;49.992;14.512;2023-05-07T09:00:10;98499.66;;;10.85;51.13
75039;BME280;63609;49.992;14.512;2023-05-07T09:02:40;98507.66;;;10.94;51.35
75039;BME280;63609;49.992;14.512;2023-05-07T09:05:08;98496.88;;;11.80;49.03
75039;BME280;63609;49.992;14.512;2023-05-07T09:07:38;98509.28;;;11.98;48.44
75039;BME280;63609;49.992;14.512;2023-05-07T09:10:07;98507.06;;;12.39;47.76
75039;BME280;63609;49.992;14.512;2023-05-07T09:12:38;98511.50;;;12.30;48.13
75039;BME280;63609;49.992;14.512;2023-05-07T09:15:08;98516.88;;;12.66;47.26
75039;BME280;63609;49.992;14.512;2023-05-07T09:17:36;98504.69;;;12.89;47.06
75039;BME280;63609;49.992;14.512;2023-05-07T09:20:07;98503.19;;;12.51;47.04
75039;BME280;63609;49.992;14.512;2023-05-07T09:22:38;98498.75;;;12.60;48.39
75039;BME280;63609;49.992;14.512;2023-05-07T09:25:10;98508.31;;;13.24;46.15
75039;BME280;63609;49.992;14.512;2023-05-07T09:27:38;98499.25;;;13.17;45.23
75039;BME280;63609;49.992;14.512;2023-05-07T09:30:08;98516.94;;;13.36;46.21
75039;BME280;63609;49.992;14.512;2023-05-07T09:32:37;98515.22;;;13.52;44.41
75039;BME280;63609;49.992;14.512;2023-05-07T09:35:18;98517.84;;;13.18;44.87
75039;BME280;63609;49.992;14.512;2023-05-07T09:37:59;98515.72;;;12.69;46.64
75039;BME280;63609;49.992;14.512;2023-05-07T09:40:33;98509.25;;;12.97;47.10
75039;BME280;63609;49.992;14.512;2023-05-07T09:43:11;98511.00;;;13.50;44.82
75039;BME280;63609;49.992;14.512;2023-05-07T09:45:46;98512.91;;;13.32;45.95
75039;BME280;63609;49.992;14.512;2023-05-07T09:48:21;98511.56;;;13.36;45.80
75039;BME280;63609;49.992;14.512;2023-05-07T09:50:51;98505.22;;;13.37;45.30
75039;BME280;63609;49.992;14.512;2023-05-07T09:53:24;98502.25;;;13.40;45.34
75039;BME280;63609;49.992;14.512;2023-05-07T09:55:55;98526.81;;;13.61;44.66
75039;BME280;63609;49.992;14.512;2023-05-07T09:58:25;98510.09;;;13.67;44.27
75039;BME280;63609;49.992;14.512;2023-05-07T10:00:54;98520.81;;;13.67;44.25
75039;BME280;63609;49.992;14.512;2023-05-07T10:03:24;98514.31;;;13.18;44.95
75039;BME280;63609;49.992;14.512;2023-05-07T10:05:58;98515.22;;;13.87;43.56
75039;BME280;63609;49.992;14.512;2023-05-07T10:08:27;98511.94;;;13.67;44.39
75039;BME280;63609;49.992;14.512;2023-05-07T10:11:05;98519.53;;;13.71;44.11
75039;BME280;63609;49.992;14.512;2023-05-07T10:13:35;98526.06;;;13.43;44.08
75039;BME280;63609;49.992;14.512;2023-05-07T10:16:07;98517.75;;;13.54;44.29
75039;BME280;63609;49.992;14.512;2023-05-07T10:18:49;98515.19;;;13.78;44.64
75039;BME280;63609;49.992;14.512;2023-05-07T10:21:23;98513.38;;;13.27;45.76
75039;BME280;63609;49.992;14.512;2023-05-07T10:24:21;98520.91;;;13.49;45.13
75039;BME280;63609;49.992;14.512;2023-05-07T10:26:52;98520.91;;;13.23;44.82
75039;BME280;63609;49.992;14.512;2023-05-07T10:29:42;98519.34;;;13.39;45.90
75039;BME280;63609;49.992;14.512;2023-05-07T10:32:38;98507.22;;;13.69;45.27
75039;BME280;63609;49.992;14.512;2023-05-07T10:35:23;98492.88;;;14.12;43.23
75039;BME280;63609;49.992;14.512;2023-05-07T10:37:52;98498.91;;;14.14;43.83
75039;BME280;63609;49.992;14.512;2023-05-07T10:40:22;98499.44;;;14.26;43.67
75039;BME280;63609;49.992;14.512;2023-05-07T10:43:00;98493.94;;;14.01;43.70
75039;BME280;63609;49.992;14.512;2023-05-07T10:45:34;98491.81;;;14.05;43.09
75039;BME280;63609;49.992;14.512;2023-05-07T10:51:19;98502.97;;;14.34;43.30
75039;BME280;63609;49.992;14.512;2023-05-07T10:56:52;98495.31;;;14.72;41.98
75039;BME280;63609;49.992;14.512;2023-05-07T10:59:31;98488.09;;;14.89;42.35
75039;BME280;63609;49.992;14.512;2023-05-07T11:02:13;98490.13;;;14.70;42.24
75039;BME280;63609;49.992;14.512;2023-05-07T11:05:24;98491.28;;;14.84;43.19
75039;BME280;63609;49.992;14.512;2023-05-07T11:08:13;98497.16;;;15.28;42.29
75039;BME280;63609;49.992;14.512;2023-05-07T11:10:55;98505.41;;;15.19;42.16
75039;BME280;63609;49.992;14.512;2023-05-07T11:13:45;98497.31;;;14.62;42.90
75039;BME280;63609;49.992;14.512;2023-05-07T11:16:23;98502.06;;;15.08;42.95
75039;BME280;63609;49.992;14.512;2023-05-07T11:25:34;98506.38;;;15.42;41.92
75039;BME280;63609;49.992;14.512;2023-05-07T11:28:18;98504.69;;;14.68;44.06
75039;BME280;63609;49.992;14.512;2023-05-07T11:30:57;98510.00;;;14.19;45.18
75039;BME280;63609;49.992;14.512;2023-05-07T11:33:25;98515.81;;;14.06;45.75
75039;BME280;63609;49.992;14.512;2023-05-07T11:35:57;98518.78;;;14.03;45.74
75039;BME280;63609;49.992;14.512;2023-05-07T11:38:37;98513.09;;;13.64;46.24
75039;BME280;63609;49.992;14.512;2023-05-07T11:41:07;98514.00;;;13.47;46.74
75039;BME280;63609;49.992;14.512;2023-05-07T11:43:37;98515.91;;;13.54;46.72
75039;BME280;63609;49.992;14.512;2023-05-07T11:46:11;98511.38;;;13.55;47.04
75039;BME280;63609;49.992;14.512;2023-05-07T11:48:43;98513.38;;;13.53;46.77
75039;BME280;63609;49.992;14.512;2023-05-07T11:51:19;98511.88;;;13.93;45.70
75039;BME280;63609;49.992;14.512;2023-05-07T11:53:48;98510.66;;;13.79;46.08
75039;BME280;63609;49.992;14.512;2023-05-07T11:56:18;98518.94;;;13.94;45.92
75039;BME280;63609;49.992;14.512;2023-05-07T11:58:47;98514.19;;;14.13;45.13
75039;BME280;63609;49.992;14.512;2023-05-07T12:01:20;98507.38;;;14.43;44.83
75039;BME280;63609;49.992;14.512;2023-05-07T12:03:48;98513.19;;;14.23;44.81
75039;BME280;63609;49.992;14.512;2023-05-07T12:06:16;98517.13;;;14.61;43.73
75039;BME280;63609;49.992;14.512;2023-05-07T12:08:45;98503.56;;;14.70;43.45
75039;BME280;63609;49.992;14.512;2023-05-07T12:11:23;98506.41;;;14.69;43.53
75039;BME280;63609;49.992;14.512;2023-05-07T12:13:51;98512.25;;;14.56;43.58
75039;BME280;63609;49.992;14.512;2023-05-07T12:16:26;98511.09;;;14.91;43.34
75039;BME280;63609;49.992;14.512;2023-05-07T12:18:55;98506.91;;;14.89;42.60
75039;BME280;63609;49.992;14.512;2023-05-07T12:21:23;98502.53;;;14.88;42.60
75039;BME280;63609;49.992;14.512;2023-05-07T12:23:51;98509.25;;;15.00;42.73
75039;BME280;63609;49.992;14.512;2023-05-07T12:26:19;98521.00;;;14.99;42.93
75039;BME280;63609;49.992;14.512;2023-05-07T12:28:49;98508.75;;;14.80;43.47
75039;BME280;63609;49.992;14.512;2023-05-07T12:31:19;98508.91;;;14.62;42.88
75039;BME280;63609;49.992;14.512;2023-05-07T12:33:47;98525.06;;;14.78;42.38
75039;BME280;63609;49.992;14.512;2023-05-07T12:36:15;98516.47;;;14.67;42.29
75039;BME280;63609;49.992;14.512;2023-05-07T12:38:44;98524.34;;;14.68;42.13
75039;BME280;63609;49.992;14.512;2023-05-07T12:41:13;98518.50;;;14.73;41.89
75039;BME280;63609;49.992;14.512;2023-05-07T12:43:44;98523.38;;;15.02;42.00
75039;BME280;63609;49.992;14.512;2023-05-07T12:46:14;98509.41;;;14.98;41.13
75039;BME280;63609;49.992;14.512;2023-05-07T12:48:46;98519.88;;;15.10;41.62
75039;BME280;63609;49.992;14.512;2023-05-07T12:51:15;98513.31;;;15.20;40.85
75039;BME280;63609;49.992;14.512;2023-05-07T12:53:45;98517.44;;;15.55;40.76
75039;BME280;63609;49.992;14.512;2023-05-07T12:56:15;98510.81;;;15.82;40.10
75039;BME280;63609;49.992;14.512;2023-05-07T12:58:44;98516.19;;;15.90;40.95
75039;BME280;63609;49.992;14.512;2023-05-07T13:01:18;98525.34;;;15.57;40.68
75039;BME280;63609;49.992;14.512;2023-05-07T13:03:48;98505.09;;;15.77;40.31
75039;BME280;63609;49.992;14.512;2023-05-07T13:06:18;98505.38;;;15.98;40.78
75039;BME280;63609;49.992;14.512;2023-05-07T13:08:46;98507.34;;;16.13;39.57
75039;BME280;63609;49.992;14.512;2023-05-07T13:11:13;98519.44;;;16.17;39.23
75039;BME280;63609;49.992;14.512;2023-05-07T13:13:41;98515.78;;;16.41;37.96
75039;BME280;63609;49.992;14.512;2023-05-07T13:16:10;98512.94;;;16.88;37.12
75039;BME280;63609;49.992;14.512;2023-05-07T13:18:39;98506.72;;;17.25;36.75
75039;BME280;63609;49.992;14.512;2023-05-07T13:21:12;98509.06;;;17.66;36.17
75039;BME280;63609;49.992;14.512;2023-05-07T13:23:42;98504.63;;;17.35;35.85
75039;BME280;63609;49.992;14.512;2023-05-07T13:26:15;98504.94;;;17.55;36.06